CYHZCYYG

Guest
Details From CYHZ - HALIFAX INTL
To CYYG - CHARLOTTETOWN
Flight Number -
Tags decoded
Created
Modified
Stats Distance 86 nm / 160 km
Max Altitude 0 ft / 0 m
Waypoints 2
Social Downloads 0
Likes 0
Share VATSIM

Download

Looking for another format? Having issues loading an existing format? Contact us
Advertisement - Login to hide

Notes

Requested: CYHZ CYYG

Route

CYHZ CYYG

ID Type Via Altitude Latitude Longitude Leg Dist Tot Dist Heading (true) Name
O CYHZ APT - 0 ft / 0 m 44.88316˚ -63.51055˚ - 0 nm - HALIFAX INTL
O CYYG APT - 0 ft / 0 m 46.29259˚ -63.12228˚ 86 nm 86 nm 11° / 11° CHARLOTTETOWN

Altitude Profile

Advertisement - Login to hide

CYHZ

Details ICAO CYHZ (YHZ)
Name HALIFAX INTL
Region Canada
Timezone America/Halifax (UTC-4.0)
Stats Elevation 477 ft / 145 m (AMSL)
Location 44.883158° -63.510554°
Runways 2
Magnetic Variation 17.420° W

METAR

CYHZ 141300Z 23020G26KT 15SM FEW030 M03/M07 A2947 RMK SC1 SLP987

Decode

TAF

TAF CYHZ 141139Z 1412/1512 24020G30KT P6SM BKN025 TEMPO 1412/1416 21/2SM -SHSN OVC020 FM141600 24018G28KT P6SM SCT030 TEMPO 1416/1422 4SM -SN BKN030 BECMG 1421/1422 27012KT FM150200 28015G25KT 6SM -SHSN BKN025 RMK NXT FCST BY 141500Z

Decode

Departure Runways

ID Width Length Bearing (true) Bearing (mag) Surface Threshold Offset Overrun Length
05 200 ft / 61 m 8,608 ft / 2,624 m 34.95° 52.37° Asphalt 0 ft / 0 m 0 ft / 0 m
14 200 ft / 61 m 7,571 ft / 2,308 m 125.19° 142.61° Asphalt 0 ft / 0 m 0 ft / 0 m
23 200 ft / 61 m 8,608 ft / 2,624 m 214.97° 232.39° Asphalt 0 ft / 0 m 0 ft / 0 m
32 200 ft / 61 m 7,571 ft / 2,308 m 305.21° 322.63° Asphalt 0 ft / 0 m 0 ft / 0 m

CYYG

Details ICAO CYYG (YYG)
Name CHARLOTTETOWN
Region Canada
Timezone America/Halifax (UTC-4.0)
Stats Elevation 160 ft / 49 m (AMSL)
Location 46.292586° -63.122276°
Runways 2
Magnetic Variation 17.904° W

METAR

CYYG 141300Z 24018G28KT 15SM BKN022 BKN250 M07/M11 A2935 RMK SC5CI2 SLP941

Decode

TAF

TAF TAF CYYG 141139Z 1412/1424 24018G28KT P6SM BKN025 TEMPO 1412/1414 5SM -SHSN OVC020 FM141400 24015G25KT P6SM SCT030 TEMPO 1415/1423 4SM -SHSN BKN030 RMK NXT FCST BY 141800Z

Decode

Destination Runways

ID Width Length Bearing (true) Bearing (mag) Surface Threshold Offset Overrun Length
03 151 ft / 46 m 7,007 ft / 2,136 m 9.01° 26.91° Asphalt 0 ft / 0 m 0 ft / 0 m
10 200 ft / 61 m 5,005 ft / 1,525 m 78.86° 96.76° Asphalt 0 ft / 0 m 0 ft / 0 m
21 151 ft / 46 m 7,007 ft / 2,136 m 189.01° 206.91° Asphalt 0 ft / 0 m 0 ft / 0 m
28 200 ft / 61 m 5,005 ft / 1,525 m 258.88° 276.78° Asphalt 0 ft / 0 m 0 ft / 0 m

Approach Navaids

Runway Type Ident Frequency Range Bearing (true) Bearing (mag) Slope Elevation
03 Localiser IYG 110.90 MHz 18 nm / 33 km 9.05° 26.95° - 160 ft / 49 m (AMSL)
03 Glidescope IYG 110.90 MHz 10 nm / 19 km 30.00° 47.90° 3.00° 160 ft / 49 m (AMSL)

Popular Alternatives